Time;durP1;ratioP1;P1;durP2;ratioP2;P2;SDS_P1;SDS_P2;PMS_P1;PMS_P2;Temp;Humidity;BMP_temperature;BMP_pressure;BME280_temperature;BME280_humidity;BME280_pressure;Samples;Min_cycle;Max_cycle;Signal;HPM_P1;HPM_P2
2024/04/09 00:00:46;;;;;;;25.15;15.73;;;13.90;99.90;;;;;;5445026;26;20563;-69
2024/04/09 00:03:12;;;;;;;25.73;14.90;;;13.90;99.90;;;;;;5442085;26;19999;-69
2024/04/09 00:05:39;;;;;;;25.15;14.93;;;13.90;99.90;;;;;;5443093;26;20011;-69
2024/04/09 00:08:10;;;;;;;24.35;13.75;;;13.80;99.90;;;;;;5444125;26;20416;-69
2024/04/09 00:10:37;;;;;;;23.95;13.80;;;13.80;99.90;;;;;;5413031;26;20014;-69
2024/04/09 00:13:04;;;;;;;23.33;13.75;;;13.80;99.90;;;;;;5443585;26;20010;-69
2024/04/09 00:15:36;;;;;;;21.98;14.85;;;13.80;99.90;;;;;;5444360;26;19995;-69
2024/04/09 00:18:11;;;;;;;27.30;15.60;;;13.80;99.90;;;;;;5443141;26;20039;-69
2024/04/09 00:20:42;;;;;;;25.00;14.00;;;13.70;99.90;;;;;;5443482;26;20011;-70
2024/04/09 00:23:09;;;;;;;25.25;14.38;;;13.80;99.90;;;;;;5412274;26;20004;-70
2024/04/09 00:25:37;;;;;;;25.17;15.00;;;13.80;99.90;;;;;;5443942;26;19995;-69
2024/04/09 00:28:03;;;;;;;23.48;14.35;;;13.80;99.90;;;;;;5443989;26;19999;-69
2024/04/09 00:30:29;;;;;;;23.55;15.57;;;13.80;99.90;;;;;;5444393;26;20010;-69
2024/04/09 00:32:54;;;;;;;24.10;14.35;;;13.80;99.90;;;;;;5443602;26;20004;-70
2024/04/09 00:35:23;;;;;;;30.25;15.02;;;13.80;99.90;;;;;;5444761;26;20014;-69
2024/04/09 00:37:54;;;;;;;29.67;16.45;;;13.90;99.90;;;;;;5443334;26;20004;-69
2024/04/09 00:40:21;;;;;;;24.70;14.98;;;13.90;99.90;;;;;;5443215;26;20021;-69
2024/04/09 00:42:49;;;;;;;25.73;15.05;;;13.90;99.90;;;;;;5443587;26;20029;-69
2024/04/09 00:45:19;;;;;;;26.48;15.30;;;13.90;99.90;;;;;;5412760;26;19999;-69
2024/04/09 00:47:48;;;;;;;23.80;13.63;;;13.90;99.90;;;;;;5443604;26;20054;-69
2024/04/09 00:50:16;;;;;;;28.95;15.40;;;13.90;99.90;;;;;;5443968;26;20060;-70
2024/04/09 00:52:43;;;;;;;25.70;15.07;;;13.90;99.90;;;;;;5444049;26;20010;-69
2024/04/09 00:55:11;;;;;;;24.77;14.75;;;13.90;99.90;;;;;;5443052;26;20039;-69
2024/04/09 00:57:39;;;;;;;21.98;14.10;;;13.90;99.90;;;;;;5443540;26;20007;-70
2024/04/09 01:00:06;;;;;;;25.27;13.75;;;14.00;99.90;;;;;;5443272;26;20366;-69
2024/04/09 01:02:33;;;;;;;25.83;14.45;;;13.90;99.90;;;;;;5443615;26;19998;-69
2024/04/09 01:04:59;;;;;;;26.08;13.80;;;13.90;99.90;;;;;;5444148;26;20922;-69
2024/04/09 01:07:26;;;;;;;22.25;12.55;;;13.90;99.90;;;;;;5443742;26;19999;-70
2024/04/09 01:09:52;;;;;;;22.42;13.18;;;13.90;99.90;;;;;;5442426;26;20006;-70
2024/04/09 01:12:17;;;;;;;25.67;13.43;;;14.00;99.90;;;;;;5444459;26;19999;-70
2024/04/09 01:14:43;;;;;;;24.83;13.77;;;14.00;99.90;;;;;;5443457;26;19999;-70
2024/04/09 01:17:09;;;;;;;23.73;13.30;;;13.90;99.90;;;;;;5443446;26;20007;-70
2024/04/09 01:19:35;;;;;;;22.80;13.50;;;14.00;99.90;;;;;;5443467;26;20084;-69
2024/04/09 01:22:01;;;;;;;24.23;13.82;;;13.90;99.90;;;;;;5442182;26;20474;-70
2024/04/09 01:24:27;;;;;;;22.70;12.93;;;14.00;99.90;;;;;;5441000;26;20007;-70
2024/04/09 01:26:52;;;;;;;21.17;13.88;;;14.00;99.90;;;;;;5412107;26;20018;-70
2024/04/09 01:29:18;;;;;;;21.75;13.88;;;14.00;99.90;;;;;;5443687;26;20012;-69
2024/04/09 01:31:44;;;;;;;21.60;12.98;;;14.00;99.90;;;;;;5443567;26;20356;-70
2024/04/09 01:34:09;;;;;;;25.33;12.82;;;13.90;99.90;;;;;;5443415;26;19999;-70
2024/04/09 01:36:36;;;;;;;26.35;12.55;;;13.90;99.90;;;;;;5442713;26;19999;-70
2024/04/09 01:39:02;;;;;;;22.05;12.40;;;13.90;99.90;;;;;;5443203;26;20041;-70
2024/04/09 01:41:27;;;;;;;19.70;12.00;;;13.90;99.90;;;;;;5443001;26;20011;-70
2024/04/09 01:43:53;;;;;;;19.92;11.25;;;13.90;99.90;;;;;;5443087;26;20035;-70
2024/04/09 01:46:19;;;;;;;22.13;11.50;;;13.90;99.90;;;;;;5442206;26;20015;-70
2024/04/09 01:48:44;;;;;;;25.95;12.13;;;14.00;99.90;;;;;;5443636;26;20010;-70
2024/04/09 01:51:13;;;;;;;22.40;11.38;;;14.00;99.90;;;;;;5442628;26;20709;-70
2024/04/09 01:53:43;;;;;;;25.02;11.93;;;14.00;99.90;;;;;;5442780;26;20007;-70
2024/04/09 01:56:10;;;;;;;18.42;11.65;;;14.00;99.90;;;;;;5441898;26;20011;-70
2024/04/09 01:58:35;;;;;;;20.60;10.60;;;14.00;99.90;;;;;;5442734;26;19999;-70
2024/04/09 02:01:05;;;;;;;20.65;11.32;;;14.10;99.90;;;;;;5443003;26;20017;-70
2024/04/09 02:03:31;;;;;;;21.42;11.45;;;14.10;99.90;;;;;;5443118;26;20013;-70
2024/04/09 02:05:57;;;;;;;20.95;11.02;;;14.10;99.90;;;;;;5442975;26;20459;-69
2024/04/09 02:08:22;;;;;;;16.13;11.10;;;14.10;99.90;;;;;;5443117;26;20014;-70
2024/04/09 02:10:48;;;;;;;23.38;11.43;;;14.10;99.90;;;;;;5442524;26;20009;-70
2024/04/09 02:13:16;;;;;;;25.15;11.65;;;14.10;99.90;;;;;;5442964;26;19999;-70
2024/04/09 02:15:44;;;;;;;27.35;11.38;;;14.10;99.90;;;;;;5442917;26;20014;-70
2024/04/09 02:18:10;;;;;;;24.75;11.80;;;14.20;99.90;;;;;;5441085;26;20480;-70
2024/04/09 02:20:38;;;;;;;22.15;11.88;;;14.20;99.90;;;;;;5442290;26;19999;-70
2024/04/09 02:23:04;;;;;;;19.05;10.20;;;14.20;99.90;;;;;;5442151;26;20010;-70
2024/04/09 02:25:30;;;;;;;19.05;10.82;;;14.10;99.90;;;;;;5442507;26;20002;-70
2024/04/09 02:27:56;;;;;;;25.33;10.73;;;14.20;99.90;;;;;;5442557;26;20104;-70
2024/04/09 02:30:21;;;;;;;22.92;11.70;;;14.10;99.90;;;;;;5441361;26;20007;-69
2024/04/09 02:32:47;;;;;;;21.27;10.73;;;14.30;99.90;;;;;;5441992;26;20015;-69
2024/04/09 02:35:12;;;;;;;25.60;10.75;;;14.30;99.90;;;;;;5442340;26;20458;-69
2024/04/09 02:37:41;;;;;;;23.10;11.07;;;14.30;99.90;;;;;;5445773;26;20009;-70
2024/04/09 02:40:14;;;;;;;20.75;11.75;;;14.30;99.90;;;;;;5445969;26;20023;-70
2024/04/09 02:42:42;;;;;;;25.57;10.63;;;14.20;99.90;;;;;;5446320;26;20392;-69
2024/04/09 02:45:09;;;;;;;20.45;10.50;;;14.30;99.90;;;;;;5444651;26;20341;-70
2024/04/09 02:47:35;;;;;;;18.25;10.05;;;14.20;99.90;;;;;;5445372;26;20011;-70
2024/04/09 02:50:02;;;;;;;22.48;10.02;;;14.20;99.90;;;;;;5442987;26;20026;-70
2024/04/09 02:52:27;;;;;;;17.73;8.90;;;14.20;99.90;;;;;;5442310;26;20061;-70
2024/04/09 02:54:53;;;;;;;16.15;9.02;;;14.30;99.90;;;;;;5444320;26;20018;-70
2024/04/09 02:57:18;;;;;;;19.70;9.30;;;14.30;99.90;;;;;;5446177;26;20436;-69
2024/04/09 02:59:44;;;;;;;15.23;8.88;;;14.30;99.90;;;;;;5445199;26;20006;-70
2024/04/09 03:02:10;;;;;;;20.25;8.68;;;14.30;99.90;;;;;;5445452;26;20041;-70
2024/04/09 03:04:36;;;;;;;21.15;9.00;;;14.40;99.90;;;;;;5445735;26;20008;-70
2024/04/09 03:07:03;;;;;;;21.10;9.20;;;14.40;99.90;;;;;;5445194;26;19999;-69
2024/04/09 03:09:30;;;;;;;21.83;9.50;;;14.40;99.90;;;;;;5445896;26;19999;-71
2024/04/09 03:11:56;;;;;;;19.85;8.65;;;14.40;99.90;;;;;;5444964;26;20003;-71
2024/04/09 03:14:22;;;;;;;21.10;8.45;;;14.40;99.90;;;;;;5445676;26;20013;-70
2024/04/09 03:16:47;;;;;;;24.02;9.13;;;14.40;99.90;;;;;;5445393;26;20017;-70
2024/04/09 03:19:13;;;;;;;19.05;8.90;;;14.40;99.90;;;;;;5413283;26;20003;-70
2024/04/09 03:21:39;;;;;;;17.17;8.63;;;14.50;99.90;;;;;;5444120;26;20347;-70
2024/04/09 03:24:05;;;;;;;17.13;8.60;;;14.50;99.90;;;;;;5445240;26;20002;-69
2024/04/09 03:26:30;;;;;;;21.45;9.20;;;14.50;99.90;;;;;;5445462;26;20003;-70
2024/04/09 03:28:56;;;;;;;21.13;9.35;;;14.50;99.90;;;;;;5445217;26;20008;-70
2024/04/09 03:31:21;;;;;;;14.77;7.93;;;14.50;99.90;;;;;;5445470;26;20108;-69
2024/04/09 03:33:48;;;;;;;25.52;8.23;;;14.50;99.90;;;;;;5443846;26;20417;-70
2024/04/09 03:36:14;;;;;;;15.65;8.40;;;14.50;99.90;;;;;;5444445;26;20455;-70
2024/04/09 03:38:40;;;;;;;18.95;8.57;;;14.50;99.90;;;;;;5444444;26;20018;-70
2024/04/09 03:41:07;;;;;;;15.23;8.48;;;14.50;99.90;;;;;;5444078;26;19999;-70
2024/04/09 03:43:33;;;;;;;19.67;8.07;;;14.50;99.90;;;;;;5443664;26;20003;-70
2024/04/09 03:46:10;;;;;;;19.35;8.35;;;14.40;99.90;;;;;;5440040;26;20002;-71
2024/04/09 03:48:37;;;;;;;19.17;8.40;;;14.40;99.90;;;;;;5440739;26;19999;-71
2024/04/09 03:51:04;;;;;;;15.60;8.38;;;14.30;99.90;;;;;;5445096;26;20011;-70
2024/04/09 03:53:29;;;;;;;15.27;8.55;;;14.30;99.90;;;;;;5444540;26;20000;-70
2024/04/09 03:56:00;;;;;;;19.83;8.90;;;14.20;99.90;;;;;;5442814;26;20000;-72
2024/04/09 03:58:51;;;;;;;14.93;8.27;;;14.20;99.90;;;;;;5443051;26;20011;-71
2024/04/09 04:01:17;;;;;;;20.10;9.20;;;14.10;99.90;;;;;;5391591;26;20044;-72
2024/04/09 04:03:48;;;;;;;16.38;8.80;;;14.10;99.90;;;;;;5398452;26;19995;-71
2024/04/09 04:06:14;;;;;;;19.98;8.95;;;14.10;99.90;;;;;;5433920;26;20042;-71
2024/04/09 04:08:42;;;;;;;15.50;7.85;;;14.10;99.90;;;;;;5436009;26;20019;-72
2024/04/09 04:11:12;;;;;;;19.98;8.70;;;14.10;99.90;;;;;;5442904;26;19995;-71
2024/04/09 04:13:39;;;;;;;20.27;9.23;;;14.10;99.90;;;;;;5442431;26;20002;-71
2024/04/09 04:16:12;;;;;;;19.10;9.45;;;14.10;99.90;;;;;;5438821;26;20024;-71
2024/04/09 04:18:46;;;;;;;15.73;8.93;;;14.10;99.90;;;;;;5412776;26;20005;-71
2024/04/09 04:21:16;;;;;;;18.90;9.02;;;14.00;99.90;;;;;;5443092;26;20007;-71
2024/04/09 04:23:43;;;;;;;22.23;10.65;;;14.00;99.90;;;;;;5411907;26;19996;-72
2024/04/09 04:26:19;;;;;;;21.30;9.00;;;13.90;99.90;;;;;;5443747;26;21791;-71
2024/04/09 04:28:46;;;;;;;23.02;9.88;;;14.00;99.90;;;;;;5444021;26;19995;-73
2024/04/09 04:31:15;;;;;;;24.20;9.45;;;13.90;99.90;;;;;;5443401;26;20009;-71
2024/04/09 04:33:43;;;;;;;19.27;9.68;;;14.00;99.90;;;;;;5442868;26;20034;-72
2024/04/09 04:36:09;;;;;;;18.95;9.43;;;14.10;99.90;;;;;;5443233;26;20016;-71
2024/04/09 04:38:35;;;;;;;24.20;9.65;;;14.10;99.90;;;;;;5444394;26;20000;-71
2024/04/09 04:41:02;;;;;;;18.90;8.90;;;14.20;99.90;;;;;;5443665;26;20003;-71
2024/04/09 04:43:28;;;;;;;25.17;8.80;;;14.20;99.90;;;;;;5445261;26;20006;-71
2024/04/09 04:45:55;;;;;;;19.88;9.60;;;14.30;99.90;;;;;;5411628;26;20003;-71
2024/04/09 04:48:20;;;;;;;22.10;9.38;;;14.30;99.90;;;;;;5444041;26;20053;-70
2024/04/09 04:50:47;;;;;;;21.63;8.75;;;14.30;99.90;;;;;;5443900;26;19999;-71
2024/04/09 04:53:13;;;;;;;22.30;8.82;;;14.30;99.90;;;;;;5444055;26;20331;-71
2024/04/09 04:55:39;;;;;;;18.42;8.52;;;14.40;99.90;;;;;;5444563;26;20002;-70
2024/04/09 04:58:05;;;;;;;19.23;8.98;;;14.40;99.90;;;;;;5444087;26;20010;-70
2024/04/09 05:00:31;;;;;;;20.52;9.02;;;14.50;99.90;;;;;;5443576;26;19999;-71
2024/04/09 05:02:57;;;;;;;23.10;8.55;;;14.50;99.90;;;;;;5412429;26;20003;-72
2024/04/09 05:05:23;;;;;;;25.05;8.38;;;14.60;99.90;;;;;;5443645;26;20071;-73
2024/04/09 05:07:49;;;;;;;19.10;8.60;;;14.70;99.90;;;;;;5443665;26;20001;-72
2024/04/09 05:10:16;;;;;;;20.67;8.60;;;14.70;99.90;;;;;;5412133;26;20056;-72
2024/04/09 05:12:45;;;;;;;17.65;8.15;;;14.70;99.90;;;;;;5411813;26;20406;-72
2024/04/09 05:15:13;;;;;;;23.60;8.27;;;14.70;99.90;;;;;;5439460;26;20030;-70
2024/04/09 05:17:39;;;;;;;20.13;8.48;;;14.60;99.90;;;;;;5440280;26;20011;-70
2024/04/09 05:20:14;;;;;;;24.88;9.38;;;14.70;99.90;;;;;;5440270;26;20019;-71
2024/04/09 05:22:47;;;;;;;22.48;7.88;;;14.70;99.90;;;;;;5443025;26;20011;-71
2024/04/09 05:25:14;;;;;;;27.05;9.00;;;14.80;99.90;;;;;;5444025;26;20010;-70
2024/04/09 05:27:40;;;;;;;19.95;8.00;;;14.70;99.90;;;;;;5441706;26;20027;-71
2024/04/09 05:30:07;;;;;;;24.20;8.32;;;14.70;99.90;;;;;;5442990;26;19998;-70
2024/04/09 05:32:41;;;;;;;17.65;7.97;;;14.70;99.90;;;;;;5443314;26;19998;-71
2024/04/09 05:35:11;;;;;;;18.73;8.23;;;14.60;99.90;;;;;;5443146;26;20035;-71
2024/04/09 05:37:38;;;;;;;19.27;7.03;;;14.70;99.90;;;;;;5412033;26;20011;-72
2024/04/09 05:40:10;;;;;;;23.05;8.38;;;14.70;99.90;;;;;;5443096;26;20451;-71
2024/04/09 05:42:49;;;;;;;24.52;7.90;;;14.80;99.90;;;;;;5412084;26;19999;-70
2024/04/09 05:45:21;;;;;;;20.58;7.50;;;14.80;99.90;;;;;;5443486;26;20450;-70
2024/04/09 05:47:47;;;;;;;25.23;7.53;;;14.80;99.90;;;;;;5443250;26;20048;-73
2024/04/09 05:50:13;;;;;;;17.40;7.93;;;14.90;99.90;;;;;;5443195;26;20003;-73
2024/04/09 05:52:39;;;;;;;18.63;7.70;;;14.90;99.90;;;;;;5411806;26;20055;-70
2024/04/09 05:55:05;;;;;;;21.50;7.35;;;15.00;99.90;;;;;;5443136;26;19999;-70
2024/04/09 05:57:37;;;;;;;25.33;7.85;;;15.10;99.90;;;;;;5440640;26;20007;-72
2024/04/09 06:00:09;;;;;;;22.15;7.95;;;15.10;99.90;;;;;;5440813;26;20003;-70
2024/04/09 06:02:34;;;;;;;23.27;8.02;;;15.20;99.90;;;;;;5441225;26;19999;-70
2024/04/09 06:05:00;;;;;;;22.63;7.20;;;15.20;99.90;;;;;;5443170;26;20009;-71
2024/04/09 06:07:28;;;;;;;27.25;9.18;;;15.20;99.90;;;;;;5443016;26;20097;-70
2024/04/09 06:09:54;;;;;;;16.00;6.88;;;15.10;99.90;;;;;;5442003;26;20323;-71
2024/04/09 06:12:19;;;;;;;26.35;8.32;;;15.30;99.90;;;;;;5441927;26;19996;-71
2024/04/09 06:14:45;;;;;;;21.58;7.18;;;15.20;99.90;;;;;;5441179;26;19991;-70
2024/04/09 06:17:11;;;;;;;22.73;7.05;;;15.20;99.90;;;;;;5442409;26;20011;-71
2024/04/09 06:19:36;;;;;;;18.27;7.43;;;15.20;99.90;;;;;;5441186;26;20010;-71
2024/04/09 06:22:03;;;;;;;22.63;7.18;;;15.20;99.90;;;;;;5440764;26;20011;-71
2024/04/09 06:24:29;;;;;;;15.27;6.40;;;15.20;99.90;;;;;;5441804;26;20444;-70
2024/04/09 06:26:55;;;;;;;15.60;6.88;;;15.10;99.90;;;;;;5442126;26;20023;-71
2024/04/09 06:29:21;;;;;;;14.10;6.63;;;15.20;99.90;;;;;;5442483;26;19996;-70
2024/04/09 06:31:47;;;;;;;18.70;6.05;;;15.00;99.90;;;;;;5442454;26;19999;-70
2024/04/09 06:34:13;;;;;;;15.90;6.10;;;15.20;99.90;;;;;;5411413;26;20007;-73
2024/04/09 06:36:38;;;;;;;16.45;6.10;;;15.10;99.90;;;;;;5440792;26;20010;-72
2024/04/09 06:39:05;;;;;;;19.05;6.95;;;15.10;99.90;;;;;;5440322;26;19995;-70
2024/04/09 06:41:30;;;;;;;17.25;6.15;;;15.20;99.90;;;;;;5441809;26;20011;-70
2024/04/09 06:43:56;;;;;;;13.15;5.93;;;15.00;99.90;;;;;;5441409;26;20002;-69
2024/04/09 06:46:21;;;;;;;16.70;5.75;;;15.10;99.90;;;;;;5441953;26;20000;-70
2024/04/09 06:48:47;;;;;;;11.93;5.57;;;15.10;99.90;;;;;;5442661;26;19999;-71
2024/04/09 06:51:12;;;;;;;14.55;5.90;;;15.00;99.90;;;;;;5441394;26;20019;-70
2024/04/09 06:53:38;;;;;;;12.32;5.72;;;15.10;99.90;;;;;;5442540;26;20007;-71
2024/04/09 06:56:04;;;;;;;16.90;5.35;;;15.10;99.90;;;;;;5442629;26;20004;-70
2024/04/09 06:58:29;;;;;;;13.27;5.53;;;15.20;99.90;;;;;;5440460;26;20000;-71
2024/04/09 07:00:55;;;;;;;13.55;5.53;;;15.20;99.90;;;;;;5441843;26;20743;-69
2024/04/09 07:03:20;;;;;;;13.95;5.78;;;15.20;99.90;;;;;;5410609;26;19995;-71
2024/04/09 07:05:46;;;;;;;20.23;5.95;;;15.20;99.90;;;;;;5442334;26;20079;-71
2024/04/09 07:08:11;;;;;;;15.77;5.22;;;15.20;99.90;;;;;;5442029;26;20007;-72
2024/04/09 07:10:37;;;;;;;12.00;5.40;;;15.20;99.90;;;;;;5410335;26;20049;-71
2024/04/09 07:13:03;;;;;;;17.55;5.35;;;15.20;99.90;;;;;;5441385;26;19996;-70
2024/04/09 07:15:29;;;;;;;13.82;5.10;;;15.20;99.90;;;;;;5410169;26;20357;-71
2024/04/09 07:17:54;;;;;;;9.60;4.78;;;15.40;99.90;;;;;;5441369;26;20013;-70
2024/04/09 07:20:20;;;;;;;12.80;5.75;;;15.30;99.90;;;;;;5439698;26;20017;-69
2024/04/09 07:22:46;;;;;;;12.73;5.00;;;15.30;99.90;;;;;;5441393;26;20006;-71
2024/04/09 07:25:12;;;;;;;11.15;4.65;;;15.40;99.90;;;;;;5413932;26;20016;-70
2024/04/09 07:27:39;;;;;;;9.35;4.50;;;15.40;99.90;;;;;;5444105;26;20011;-72
2024/04/09 07:30:06;;;;;;;10.02;4.70;;;15.30;99.90;;;;;;5445583;26;20007;-71
2024/04/09 07:32:31;;;;;;;12.07;4.72;;;15.40;99.90;;;;;;5436132;26;20013;-70
2024/04/09 07:34:57;;;;;;;14.32;4.75;;;15.40;99.90;;;;;;5444802;26;20003;-71
2024/04/09 07:37:23;;;;;;;13.43;5.10;;;15.50;99.90;;;;;;5444225;26;20010;-70
2024/04/09 07:39:49;;;;;;;13.93;4.90;;;15.60;99.90;;;;;;5444915;26;20091;-73
2024/04/09 07:42:15;;;;;;;9.25;4.75;;;15.70;99.90;;;;;;5412569;26;20005;-72
2024/04/09 07:44:41;;;;;;;14.63;4.97;;;15.80;99.90;;;;;;5444421;26;20000;-72
2024/04/09 07:47:10;;;;;;;14.18;4.90;;;15.80;99.90;;;;;;5442046;26;19999;-71
2024/04/09 07:49:36;;;;;;;14.32;4.95;;;15.80;99.90;;;;;;5442421;26;20007;-71
2024/04/09 07:52:04;;;;;;;9.55;4.32;;;15.80;99.90;;;;;;5441852;26;20013;-71
2024/04/09 07:54:29;;;;;;;10.65;5.07;;;15.80;99.90;;;;;;5441254;26;20010;-70
2024/04/09 07:56:55;;;;;;;12.60;5.00;;;15.80;99.90;;;;;;5444663;26;20011;-72
2024/04/09 07:59:22;;;;;;;13.65;5.60;;;15.80;99.90;;;;;;5441891;26;19999;-71
2024/04/09 08:01:47;;;;;;;12.60;6.18;;;15.70;99.90;;;;;;5444282;26;20019;-72
2024/04/09 08:04:13;;;;;;;10.07;5.40;;;15.60;99.90;;;;;;5410499;26;19996;-73
2024/04/09 08:06:39;;;;;;;12.43;5.88;;;15.50;99.90;;;;;;5441881;26;20003;-73
2024/04/09 08:09:05;;;;;;;12.75;6.05;;;15.60;99.90;;;;;;5442311;26;21183;-71
2024/04/09 08:11:30;;;;;;;14.13;6.07;;;15.50;99.90;;;;;;5413504;26;20344;-71
2024/04/09 08:13:56;;;;;;;9.98;6.00;;;15.60;99.90;;;;;;5413690;26;20002;-70
2024/04/09 08:16:21;;;;;;;11.93;5.93;;;15.70;99.90;;;;;;5413004;26;19996;-71
2024/04/09 08:18:47;;;;;;;13.85;6.43;;;15.60;99.90;;;;;;5444371;26;20331;-72
2024/04/09 08:21:15;;;;;;;13.98;6.68;;;15.80;99.90;;;;;;5445390;26;19999;-72
2024/04/09 08:23:43;;;;;;;11.93;6.25;;;15.90;99.90;;;;;;5443055;26;20013;-70
2024/04/09 08:26:09;;;;;;;15.18;7.35;;;15.90;99.90;;;;;;5443405;26;20003;-71
2024/04/09 08:28:34;;;;;;;13.18;7.53;;;15.90;99.90;;;;;;5444201;26;20018;-72
2024/04/09 08:31:10;;;;;;;13.63;7.40;;;15.80;99.90;;;;;;5444242;26;20002;-71
2024/04/09 08:33:37;;;;;;;16.77;7.18;;;15.80;99.90;;;;;;5444103;26;20011;-71
2024/04/09 08:36:03;;;;;;;19.98;8.02;;;15.60;99.90;;;;;;5443437;26;20328;-72
2024/04/09 08:38:28;;;;;;;13.23;7.63;;;15.50;99.90;;;;;;5444844;26;20014;-71
2024/04/09 08:40:55;;;;;;;17.92;8.57;;;15.50;99.90;;;;;;5413429;26;20003;-73
2024/04/09 08:43:21;;;;;;;15.18;8.60;;;15.40;99.90;;;;;;5441170;26;20428;-72
2024/04/09 08:45:48;;;;;;;14.80;8.48;;;15.40;99.90;;;;;;5444303;26;19992;-73
2024/04/09 08:48:18;;;;;;;16.42;8.93;;;15.40;99.90;;;;;;5410346;26;19999;-73
2024/04/09 08:50:49;;;;;;;18.08;9.55;;;15.50;99.90;;;;;;5443608;26;20870;-73
2024/04/09 08:53:17;;;;;;;19.05;9.13;;;15.40;99.90;;;;;;5440204;26;20110;-73
2024/04/09 08:55:43;;;;;;;15.30;9.13;;;15.60;99.90;;;;;;5444258;26;20014;-71
2024/04/09 08:58:11;;;;;;;17.15;8.77;;;15.70;99.90;;;;;;5443352;26;20395;-71
2024/04/09 09:00:37;;;;;;;14.27;8.50;;;15.80;99.90;;;;;;5444362;26;20009;-71
2024/04/09 09:03:04;;;;;;;12.88;7.85;;;15.90;99.90;;;;;;5440776;26;19994;-72
2024/04/09 09:05:29;;;;;;;15.02;8.27;;;16.00;99.90;;;;;;5440327;26;20040;-70
2024/04/09 09:07:58;;;;;;;12.38;7.95;;;16.10;99.90;;;;;;5440622;26;20019;-72
2024/04/09 09:10:24;;;;;;;14.20;7.93;;;16.20;99.90;;;;;;5443892;26;20054;-70
2024/04/09 09:13:04;;;;;;;12.98;7.95;;;16.30;99.90;;;;;;5443921;26;20431;-71
2024/04/09 09:15:30;;;;;;;13.77;8.25;;;16.20;99.90;;;;;;5444926;26;20002;-73
2024/04/09 09:17:56;;;;;;;18.00;8.75;;;16.20;99.90;;;;;;5443235;26;20003;-71
2024/04/09 09:20:22;;;;;;;18.95;8.70;;;16.10;99.90;;;;;;5443998;26;20443;-71
2024/04/09 09:22:51;;;;;;;18.08;8.60;;;16.20;99.90;;;;;;5443286;26;19995;-73
2024/04/09 09:25:18;;;;;;;16.80;8.52;;;16.10;99.90;;;;;;5443755;26;20011;-71
2024/04/09 09:27:44;;;;;;;15.82;8.32;;;16.00;99.90;;;;;;5443785;26;20003;-71
2024/04/09 09:30:11;;;;;;;14.93;8.50;;;15.90;99.90;;;;;;5443826;26;20011;-72
2024/04/09 09:32:45;;;;;;;18.80;8.85;;;15.80;99.90;;;;;;5441721;26;20018;-70
2024/04/09 09:35:15;;;;;;;;;;;15.90;99.90;;;;;;5412491;26;20020;-70
2024/04/09 09:37:40;;;;;;;22.10;8.70;;;15.90;99.90;;;;;;5442649;26;20418;-68
2024/04/09 09:40:09;;;;;;;14.40;8.80;;;15.80;99.90;;;;;;5441679;26;19998;-68
2024/04/09 09:42:35;;;;;;;17.92;9.73;;;15.90;99.90;;;;;;5443249;26;20023;-68
2024/04/09 09:45:03;;;;;;;16.67;9.27;;;15.90;99.90;;;;;;5441352;26;20068;-68
2024/04/09 09:47:32;;;;;;;19.55;10.68;;;16.00;99.90;;;;;;5442488;26;20024;-68
2024/04/09 09:49:58;;;;;;;13.93;9.32;;;15.90;99.90;;;;;;5442742;26;20058;-68
2024/04/09 09:52:24;;;;;;;16.75;9.82;;;15.80;99.90;;;;;;5443768;26;20019;-68
2024/04/09 09:54:50;;;;;;;18.30;11.50;;;15.90;99.90;;;;;;5442713;26;20022;-70
2024/04/09 09:57:21;;;;;;;21.23;12.05;;;15.80;99.90;;;;;;5443426;26;20035;-69
2024/04/09 09:59:54;;;;;;;22.00;11.93;;;15.70;99.90;;;;;;5410439;26;20007;-69
2024/04/09 10:02:20;;;;;;;22.83;13.20;;;15.70;99.90;;;;;;5442403;26;20026;-70
2024/04/09 10:04:48;;;;;;;22.63;12.48;;;15.60;99.90;;;;;;5409808;26;19995;-68
2024/04/09 10:07:16;;;;;;;19.70;12.10;;;15.50;99.90;;;;;;5441964;26;20057;-68
2024/04/09 10:09:49;;;;;;;21.05;12.35;;;15.50;99.90;;;;;;5442445;26;19999;-72
2024/04/09 10:12:18;;;;;;;20.77;13.17;;;15.50;99.90;;;;;;5411911;26;20447;-69
2024/04/09 10:14:44;;;;;;;26.48;14.45;;;15.40;99.90;;;;;;5442335;26;20003;-71
2024/04/09 10:17:13;;;;;;;24.70;14.60;;;15.20;99.90;;;;;;5442772;26;20112;-69
2024/04/09 10:19:41;;;;;;;25.98;14.38;;;15.30;99.90;;;;;;5410690;26;20051;-71
2024/04/09 10:22:06;;;;;;;24.50;14.45;;;15.20;99.90;;;;;;5439753;26;20524;-71
2024/04/09 10:24:36;;;;;;;25.73;14.75;;;15.20;99.90;;;;;;5411544;26;19995;-70
2024/04/09 10:27:02;;;;;;;25.45;13.77;;;15.10;99.90;;;;;;5442071;26;20031;-70
2024/04/09 10:29:29;;;;;;;20.30;13.02;;;15.10;99.90;;;;;;5410454;26;20012;-71
2024/04/09 10:31:55;;;;;;;22.02;12.98;;;15.00;99.90;;;;;;5442652;26;20011;-71
2024/04/09 10:34:27;;;;;;;21.58;11.93;;;14.90;99.90;;;;;;5443509;26;20010;-70
2024/04/09 10:36:56;;;;;;;24.40;12.05;;;14.90;99.90;;;;;;5440762;26;20002;-72
2024/04/09 10:39:24;;;;;;;21.90;11.88;;;14.80;99.90;;;;;;5443621;26;20008;-72
2024/04/09 10:41:55;;;;;;;22.33;11.88;;;14.70;99.90;;;;;;5441791;26;20003;-74
2024/04/09 10:44:20;;;;;;;20.90;12.40;;;14.70;99.90;;;;;;5441289;26;20004;-71
2024/04/09 10:46:46;;;;;;;25.33;13.40;;;14.60;99.90;;;;;;5442715;26;20076;-72
2024/04/09 10:49:12;;;;;;;25.23;13.65;;;14.50;99.90;;;;;;5443068;26;20010;-69
2024/04/09 10:51:38;;;;;;;27.77;14.98;;;14.50;99.90;;;;;;5441452;26;19999;-71
2024/04/09 10:54:05;;;;;;;26.40;13.63;;;14.40;99.90;;;;;;5440795;26;20000;-70
2024/04/09 10:56:35;;;;;;;31.17;15.70;;;14.30;99.90;;;;;;5441758;26;20035;-70
2024/04/09 10:59:00;;;;;;;25.70;13.88;;;14.40;99.90;;;;;;5445073;26;20407;-72
2024/04/09 11:01:26;;;;;;;22.95;12.68;;;14.30;99.90;;;;;;5446308;26;20010;-70
2024/04/09 11:03:52;;;;;;;24.08;13.48;;;14.30;99.90;;;;;;5444519;26;20010;-72
2024/04/09 11:06:17;;;;;;;27.10;13.60;;;14.30;99.90;;;;;;5445970;26;19999;-71
2024/04/09 11:08:45;;;;;;;20.25;10.30;;;14.20;99.90;;;;;;5445469;26;20017;-71
2024/04/09 11:11:11;;;;;;;19.63;11.63;;;14.20;99.90;;;;;;5442018;26;20007;-72
2024/04/09 11:13:38;;;;;;;13.25;6.75;;;14.20;99.90;;;;;;5443255;26;20004;-70
2024/04/09 11:16:04;;;;;;;10.65;6.75;;;14.10;99.90;;;;;;5444885;26;20010;-72
2024/04/09 11:18:30;;;;;;;11.93;6.07;;;14.00;99.90;;;;;;5439705;26;19992;-71
2024/04/09 11:21:03;;;;;;;12.27;6.40;;;13.90;99.90;;;;;;5410630;26;20007;-72
2024/04/09 11:23:31;;;;;;;12.27;6.83;;;13.80;99.90;;;;;;5412019;26;19999;-72
2024/04/09 11:25:59;;;;;;;13.20;7.50;;;13.70;99.90;;;;;;5445138;26;20233;-71
2024/04/09 11:28:24;;;;;;;13.45;8.32;;;13.70;99.90;;;;;;5440731;26;20054;-70
2024/04/09 11:30:52;;;;;;;16.38;7.80;;;13.70;99.90;;;;;;5444574;26;20010;-70
2024/04/09 11:33:18;;;;;;;12.98;7.60;;;13.70;99.90;;;;;;5444487;26;20008;-73
2024/04/09 11:35:45;;;;;;;11.68;6.70;;;13.70;99.90;;;;;;5441457;26;20010;-71
2024/04/09 11:38:12;;;;;;;8.63;5.53;;;13.70;99.90;;;;;;5443562;26;20031;-75
2024/04/09 11:40:38;;;;;;;9.57;5.90;;;13.60;99.90;;;;;;5444417;26;20005;-71
2024/04/09 11:43:04;;;;;;;9.95;5.97;;;13.60;99.90;;;;;;5443260;26;19995;-71
2024/04/09 11:45:32;;;;;;;10.98;6.13;;;13.60;99.90;;;;;;5442266;26;20003;-73
2024/04/09 11:47:58;;;;;;;9.70;5.43;;;13.50;99.90;;;;;;5444331;26;20006;-69
2024/04/09 11:50:24;;;;;;;8.20;5.10;;;13.50;99.90;;;;;;5443912;26;20002;-70
2024/04/09 11:52:50;;;;;;;7.55;4.38;;;13.50;99.90;;;;;;5443463;26;19999;-70
2024/04/09 11:55:16;;;;;;;8.10;4.72;;;13.50;99.90;;;;;;5444278;26;19991;-70
2024/04/09 11:57:43;;;;;;;7.53;4.07;;;13.40;99.90;;;;;;5443977;26;20402;-71
2024/04/09 12:00:13;;;;;;;7.85;4.18;;;13.30;99.90;;;;;;5412815;26;21015;-70
2024/04/09 12:02:40;;;;;;;6.95;4.15;;;13.20;99.90;;;;;;5412511;26;20011;-72
2024/04/09 12:05:06;;;;;;;7.28;4.30;;;13.10;99.90;;;;;;5443367;26;21556;-72
2024/04/09 12:07:31;;;;;;;11.52;4.28;;;13.10;99.90;;;;;;5443895;26;20071;-72
2024/04/09 12:09:57;;;;;;;10.20;4.90;;;13.00;99.90;;;;;;5443546;26;19999;-71
2024/04/09 12:12:23;;;;;;;10.95;5.50;;;12.90;99.90;;;;;;5442860;26;20048;-71
2024/04/09 12:14:49;;;;;;;8.05;4.97;;;12.90;99.90;;;;;;5444068;26;20014;-72
2024/04/09 12:17:14;;;;;;;8.60;4.22;;;12.90;99.90;;;;;;5444090;26;20010;-72
2024/04/09 12:19:40;;;;;;;7.53;3.40;;;12.90;99.90;;;;;;5445421;26;20003;-71
2024/04/09 12:22:06;;;;;;;9.43;3.80;;;12.80;99.90;;;;;;5442644;26;20022;-71
2024/04/09 12:24:32;;;;;;;7.28;4.30;;;12.80;99.90;;;;;;5444737;26;19999;-70
2024/04/09 12:26:58;;;;;;;10.55;4.28;;;12.60;99.90;;;;;;5444638;26;20002;-72
2024/04/09 12:29:28;;;;;;;9.05;4.40;;;12.60;99.90;;;;;;5444385;26;19999;-71
2024/04/09 12:31:54;;;;;;;10.82;4.70;;;12.50;99.90;;;;;;5435340;26;20026;-71
2024/04/09 12:34:21;;;;;;;8.88;4.40;;;12.50;99.90;;;;;;5444636;26;20012;-69